Time;durP1;ratioP1;P1;durP2;ratioP2;P2;SDS_P1;SDS_P2;PMS_P1;PMS_P2;Temp;Humidity;BMP_temperature;BMP_pressure;BME280_temperature;BME280_humidity;BME280_pressure;Samples;Min_cycle;Max_cycle;Signal;HPM_P1;HPM_P2
2022/12/28 15:07:10;;;;;;;10.30;6.43;;;;;;;6.38;61.41;100093.74;2558451;77;26138;-84
2022/12/28 15:11:00;;;;;;;11.55;4.83;;;;;;;6.38;61.34;100092.86;2518929;78;26262;-81
2022/12/28 15:14:39;;;;;;;7.80;3.55;;;;;;;6.43;61.35;100086.54;2512391;78;25653;-85
2022/12/28 15:17:59;;;;;;;12.78;4.90;;;;;;;6.62;63.18;100092.84;2503120;77;25665;-84
2022/12/28 15:21:37;;;;;;;5.62;3.60;;;;;;;6.97;63.30;100097.91;2504962;77;25664;-84
2022/12/28 15:25:02;;;;;;;9.38;4.25;;;;;;;7.22;62.48;100096.11;2506885;78;25621;-84
2022/12/28 15:28:38;;;;;;;9.35;4.72;;;;;;;7.46;61.97;100076.17;2426559;80;25656;-83
2022/12/28 15:32:17;;;;;;;8.88;4.30;;;;;;;7.68;61.55;100081.59;2405646;81;25810;-84
2022/12/28 15:39:48;;;;;;;11.48;4.50;;;;;;;8.04;60.62;100078.33;2187073;89;25751;-83
2022/12/28 15:43:19;;;;;;;12.47;3.87;;;;;;;8.26;60.24;100083.70;2139242;92;35287;-83
2022/12/28 15:47:00;;;;;;;6.33;3.72;;;;;;;8.43;59.82;100089.39;2164406;90;25859;-83
2022/12/28 15:50:46;;;;;;;9.40;5.42;;;;;;;8.57;59.38;100087.17;2153914;90;25737;-84
2022/12/28 15:54:15;;;;;;;6.87;4.47;;;;;;;8.71;58.93;100087.14;2107525;92;25738;-82
2022/12/28 15:57:40;;;;;;;8.53;4.35;;;;;;;8.79;58.46;100092.53;2081314;95;27279;-82
2022/12/28 16:01:08;;;;;;;7.28;4.87;;;;;;;8.91;58.17;100082.43;2079389;93;25501;-83
2022/12/28 16:04:44;;;;;;;9.83;4.40;;;;;;;9.04;57.83;100066.72;2078603;93;25352;-84
2022/12/28 16:08:11;;;;;;;5.05;3.98;;;;;;;9.15;57.50;100076.98;2085178;93;25779;-84
2022/12/28 16:15:33;;;;;;;6.62;3.95;;;;;;;9.34;56.86;100073.08;2125278;92;25307;-84
2022/12/28 16:19:45;;;;;;;;;;;;;;;;;;;;;
2022/12/28 16:23:27;;;;;;;5.80;3.90;;;;;;;9.51;56.33;100074.34;2059067;94;25918;-84
2022/12/28 16:27:10;;;;;;;5.90;4.20;;;;;;;9.59;56.04;100065.44;2043654;95;25825;-84
2022/12/28 16:30:41;;;;;;;5.28;4.10;;;;;;;9.65;55.83;100061.64;2056932;96;25704;-83
2022/12/28 16:34:26;;;;;;;8.30;3.95;;;;;;;9.69;55.64;100055.27;2032675;93;26328;-83
2022/12/28 16:37:55;;;;;;;6.92;4.10;;;;;;;9.75;55.46;100058.83;2120254;92;25819;-84
2022/12/28 16:41:43;;;;;;;4.58;3.92;;;;;;;9.79;55.26;100059.38;2130856;91;26394;-83
2022/12/28 16:45:14;;;;;;;6.97;3.98;;;;;;;9.82;55.07;100055.11;2177270;86;25817;-84
2022/12/28 16:48:47;;;;;;;5.22;4.40;;;;;;;9.86;54.90;100059.95;2246150;86;25332;-84
2022/12/28 16:52:08;;;;;;;8.78;5.45;;;;;;;9.89;54.73;100056.12;2218982;85;30910;-84
2022/12/28 16:55:52;;;;;;;4.95;4.25;;;;;;;9.92;54.56;100049.25;2261802;85;25742;-84
2022/12/28 16:59:25;;;;;;;6.65;4.62;;;;;;;9.95;54.44;100049.71;2315531;83;25819;-84
2022/12/28 17:02:58;;;;;;;8.15;4.25;;;;;;;9.99;54.31;100048.05;2377561;83;25266;-83
2022/12/28 17:06:28;;;;;;;6.72;5.15;;;;;;;10.02;54.16;100054.63;2373788;81;25879;-83
2022/12/28 17:10:06;;;;;;;8.90;4.12;;;;;;;10.05;54.08;100045.14;2379724;82;25741;-83
2022/12/28 17:13:36;;;;;;;7.75;4.53;;;;;;;10.06;53.94;100036.94;2374442;82;25959;-84
2022/12/28 17:17:00;;;;;;;5.08;4.53;;;;;;;10.11;53.77;100035.28;2376857;83;25821;-83
2022/12/28 17:20:31;;;;;;;7.47;4.92;;;;;;;10.11;53.77;100035.28;2378602;83;25667;-81
2022/12/28 17:23:57;;;;;;;7.50;5.17;;;;;;;10.09;53.60;100037.88;2372139;81;26494;-82
2022/12/28 17:27:26;;;;;;;7.25;5.28;;;;;;;10.06;53.48;100035.63;2356175;83;25701;-82
2022/12/28 17:31:10;;;;;;;5.35;4.35;;;;;;;9.94;53.38;100033.21;2377970;82;25667;-83
2022/12/28 17:34:48;;;;;;;8.10;5.22;;;;;;;9.94;53.38;100033.21;2329200;83;25800;-82
2022/12/28 17:38:23;;;;;;;9.08;6.03;;;;;;;9.92;53.19;100029.72;2360199;82;25739;-83
2022/12/28 17:41:48;;;;;;;5.30;4.40;;;;;;;9.87;53.17;100014.41;2324973;85;25694;-82
2022/12/28 17:45:23;;;;;;;8.33;5.00;;;;;;;9.86;53.04;100028.28;2241278;87;25870;-82
2022/12/28 17:49:11;;;;;;;7.58;5.47;;;;;;;9.76;53.05;100022.86;2248692;87;25761;-84
2022/12/28 17:52:45;;;;;;;7.60;5.08;;;;;;;9.80;53.02;100017.73;2208183;86;25833;-83
2022/12/28 17:56:16;;;;;;;7.42;4.60;;;;;;;9.65;52.53;99975.36;2238084;88;25802;-81
2022/12/28 17:59:53;;;;;;;7.45;4.97;;;;;;;9.65;52.53;99975.36;2215979;88;25804;-82
2022/12/28 18:03:22;;;;;;;9.10;6.10;;;;;;;9.73;52.84;100012.38;2235431;88;25754;-82
2022/12/28 18:07:03;;;;;;;8.08;5.03;;;;;;;9.76;52.80;100004.21;2190001;89;25981;-82
2022/12/28 18:10:31;;;;;;;7.03;4.87;;;;;;;9.75;52.71;100003.73;2216632;89;25788;-83
2022/12/28 18:13:57;;;;;;;7.83;5.08;;;;;;;9.75;52.67;100001.12;2219213;86;26404;-82
2022/12/28 18:17:22;;;;;;;6.95;5.22;;;;;;;9.74;52.64;100001.11;2219184;89;25746;-83
2022/12/28 18:21:21;;;;;;;9.60;6.00;;;;;;;9.75;52.62;100006.77;2216896;84;25763;-83
2022/12/28 18:24:46;;;;;;;6.95;5.22;;;;;;;9.73;52.53;100009.78;2186251;90;25741;-83
2022/12/28 18:28:24;;;;;;;;;;;;;;;;;;;;;
2022/12/28 18:32:09;;;;;;;9.58;6.42;;;;;;;9.66;52.60;100005.73;2099103;93;25751;-83
2022/12/28 18:35:35;;;;;;;6.08;4.97;;;;;;;9.70;52.56;100003.64;2064358;92;26122;-82
2022/12/28 18:38:57;;;;;;;9.98;6.08;;;;;;;9.75;52.50;99995.05;2026728;95;25803;-82
2022/12/28 18:42:23;;;;;;;10.40;5.92;;;;;;;9.76;52.52;99995.09;2020798;96;26113;-83
2022/12/28 18:45:55;;;;;;;8.15;5.92;;;;;;;9.80;52.47;99987.80;2093749;93;25812;-83
2022/12/28 18:49:17;;;;;;;11.78;6.53;;;;;;;9.80;52.40;99989.53;2109246;93;26346;-81
2022/12/28 18:52:47;;;;;;;7.08;5.62;;;;;;;9.79;52.43;99997.77;2086200;93;26378;-81
2022/12/28 18:56:19;;;;;;;9.98;6.40;;;;;;;9.81;52.32;99993.45;2115937;92;25800;-80
2022/12/28 18:59:47;;;;;;;8.08;5.55;;;;;;;9.76;52.33;99994.22;2045653;96;25755;-81
2022/12/28 19:03:23;;;;;;;5.85;5.10;;;;;;;9.75;52.40;99996.34;2081502;93;25732;-84
2022/12/28 19:07:01;;;;;;;;;;;;;;;;;;;;;
2022/12/28 19:10:20;;;;;;;9.40;4.75;;;;;;;9.73;52.47;99992.86;2113883;93;25887;-82
2022/12/28 19:13:47;;;;;;;9.75;5.62;;;;;;;9.73;52.44;99984.63;2062309;93;25788;-81
2022/12/28 19:17:16;;;;;;;15.58;6.42;;;;;;;9.75;52.51;99992.02;2115559;93;25775;-82
2022/12/28 19:20:38;;;;;;;11.12;5.60;;;;;;;9.82;52.53;99987.42;2063528;93;26446;-82
2022/12/28 19:24:12;;;;;;;5.60;4.85;;;;;;;9.93;52.46;99986.33;2101190;94;25753;-83
2022/12/28 19:27:46;;;;;;;5.62;4.78;;;;;;;9.99;52.41;99985.15;2017028;96;26403;-84
2022/12/28 19:31:09;;;;;;;7.72;5.20;;;;;;;10.01;52.34;99979.53;1980546;99;25825;-83
2022/12/28 19:34:42;;;;;;;7.60;5.40;;;;;;;10.00;52.39;99984.72;1990615;97;25845;-84
2022/12/28 19:54:22;;;;;;;6.70;4.72;;;;;;;10.28;52.15;99962.70;2642477;74;30880;-85
2022/12/28 19:58:11;;;;;;;12.13;5.35;;;;;;;10.29;52.14;99970.56;2561026;75;25633;-80
2022/12/28 20:01:42;;;;;;;8.88;6.05;;;;;;;10.10;52.05;99922.41;2547825;77;25736;-81
2022/12/28 20:05:13;;;;;;;7.60;4.85;;;;;;;10.39;52.09;99958.55;2528443;77;25678;-82
2022/12/28 20:08:45;;;;;;;22.62;12.82;;;;;;;10.41;51.99;99950.34;2593983;75;25655;-81
2022/12/28 20:12:23;;;;;;;28.20;16.27;;;;;;;10.28;52.12;99931.00;2505099;78;25507;-79
2022/12/28 20:15:46;;;;;;;29.27;14.18;;;;;;;10.29;52.52;99939.69;2477543;78;26234;-80
2022/12/28 20:19:14;;;;;;;16.95;11.80;;;;;;;10.18;52.81;99942.08;2512092;77;25610;-80
2022/12/28 20:22:46;;;;;;;21.77;11.75;;;;;;;10.09;53.08;99943.20;2522688;77;25736;-82
2022/12/28 20:26:16;;;;;;;19.85;10.93;;;;;;;9.99;53.43;99940.87;2568046;76;25578;-80
2022/12/28 20:29:41;;;;;;;21.23;10.40;;;;;;;9.97;53.79;99954.71;2555710;76;25653;-80
2022/12/28 20:33:22;;;;;;;15.80;9.95;;;;;;;10.04;53.92;99954.84;2506945;77;25616;-81
2022/12/28 20:36:54;;;;;;;;;;;;;;;;;;;;;
2022/12/28 20:40:14;;;;;;;16.80;8.63;;;;;;;10.19;53.69;99951.64;2535013;76;25996;-81
2022/12/28 20:43:46;;;;;;;11.50;7.50;;;;;;;10.19;53.61;99963.36;2551909;76;26350;-81
2022/12/28 20:47:13;;;;;;;12.78;7.15;;;;;;;10.22;53.48;99958.64;2542402;77;25665;-80
2022/12/28 20:50:46;;;;;;;11.43;6.42;;;;;;;10.23;53.41;99963.02;2486327;77;25204;-81
2022/12/28 20:54:12;;;;;;;8.30;6.15;;;;;;;10.24;53.37;99966.95;2546426;77;25949;-80
2022/12/28 20:57:44;;;;;;;12.65;5.90;;;;;;;10.24;53.25;99963.03;2548750;77;25753;-81
2022/12/28 21:01:13;;;;;;;8.30;6.15;;;;;;;10.24;53.25;99963.03;2549083;77;25877;-79
2022/12/28 21:04:47;;;;;;;8.30;6.22;;;;;;;10.30;53.17;99966.22;2541573;77;25531;-81
2022/12/28 21:08:18;;;;;;;10.03;5.72;;;;;;;10.30;53.11;99954.50;2531138;77;25960;-82
2022/12/28 21:15:29;;;;;;;7.70;5.20;;;;;;;10.32;53.01;99949.73;2461304;79;25834;-81
2022/12/28 21:19:04;;;;;;;7.65;5.28;;;;;;;10.26;53.09;99913.58;2462157;80;25700;-81
2022/12/28 21:22:26;;;;;;;8.35;5.42;;;;;;;10.44;52.94;99932.58;2467585;78;26336;-80
2022/12/28 21:25:49;;;;;;;7.12;5.05;;;;;;;10.47;52.87;99943.06;2470937;78;25687;-81
2022/12/28 21:29:35;;;;;;;6.75;4.97;;;;;;;10.47;52.87;99943.06;2444539;80;25724;-81
